Time;durP1;ratioP1;P1;durP2;ratioP2;P2;SDS_P1;SDS_P2;PMS_P1;PMS_P2;Temp;Humidity;BMP_temperature;BMP_pressure;BME280_temperature;BME280_humidity;BME280_pressure;Samples;Min_cycle;Max_cycle;Signal;HPM_P1;HPM_P2
2023/11/13 00:01:13;;;;;;;2.97;2.43;;;9.90;85.10;;;;;;5068686;28;20528;-47
2023/11/13 00:03:41;;;;;;;3.53;2.27;;;9.80;85.00;;;;;;5065985;28;20544;-48
2023/11/13 00:06:09;;;;;;;3.07;2.33;;;9.80;85.20;;;;;;5069693;28;20721;-46
2023/11/13 00:08:38;;;;;;;3.20;2.33;;;9.90;85.40;;;;;;5068661;28;20463;-48
2023/11/13 00:11:06;;;;;;;2.50;2.03;;;9.80;85.30;;;;;;5067167;28;20453;-47
2023/11/13 00:13:34;;;;;;;3.47;2.57;;;9.80;85.30;;;;;;5068781;28;20987;-46
2023/11/13 00:16:03;;;;;;;4.07;2.57;;;9.80;85.50;;;;;;5064263;28;20556;-45
2023/11/13 00:18:32;;;;;;;3.67;2.30;;;9.80;85.60;;;;;;5064693;28;20798;-46
2023/11/13 00:21:00;;;;;;;4.67;2.70;;;9.80;85.60;;;;;;5066605;28;20439;-47
2023/11/13 00:23:29;;;;;;;3.90;2.33;;;9.80;85.70;;;;;;5067577;28;20467;-45
2023/11/13 00:25:57;;;;;;;2.70;2.40;;;9.80;85.60;;;;;;5065316;28;20473;-49
2023/11/13 00:28:25;;;;;;;2.27;1.70;;;9.80;85.70;;;;;;5065579;28;20516;-49
2023/11/13 00:30:57;;;;;;;2.90;2.00;;;9.80;85.80;;;;;;5068004;28;20438;-45
2023/11/13 00:33:25;;;;;;;2.57;2.10;;;9.80;85.80;;;;;;5062767;28;20462;-47
2023/11/13 00:35:55;;;;;;;2.80;2.30;;;9.80;85.70;;;;;;5065436;28;20513;-45
2023/11/13 00:38:23;;;;;;;2.80;2.40;;;9.80;85.70;;;;;;5066010;28;21007;-47
2023/11/13 00:40:51;;;;;;;3.40;2.20;;;9.80;85.90;;;;;;5064718;28;20526;-46
2023/11/13 00:43:20;;;;;;;2.83;2.30;;;9.80;86.00;;;;;;5067828;28;20474;-46
2023/11/13 00:45:48;;;;;;;3.00;2.13;;;9.80;86.10;;;;;;5065894;28;20431;-46
2023/11/13 00:48:16;;;;;;;2.27;1.90;;;9.80;86.10;;;;;;5061754;28;21062;-48
2023/11/13 00:50:45;;;;;;;2.87;2.33;;;9.80;86.10;;;;;;5064342;28;20431;-46
2023/11/13 00:53:14;;;;;;;3.10;2.63;;;9.80;86.00;;;;;;5064574;28;20791;-47
2023/11/13 00:55:42;;;;;;;2.33;1.97;;;9.80;86.40;;;;;;5064217;28;20497;-45
2023/11/13 00:58:10;;;;;;;2.40;1.77;;;9.80;86.30;;;;;;5064491;28;20530;-48
2023/11/13 01:00:38;;;;;;;2.63;2.13;;;9.80;86.30;;;;;;5064060;28;20982;-48
2023/11/13 01:03:07;;;;;;;3.43;2.00;;;9.80;86.30;;;;;;5058440;28;20570;-46
2023/11/13 01:05:36;;;;;;;2.47;1.63;;;9.80;86.40;;;;;;5062964;28;20948;-48
2023/11/13 01:08:04;;;;;;;2.80;2.20;;;9.80;86.40;;;;;;5065140;28;20458;-49
2023/11/13 01:10:33;;;;;;;2.60;1.93;;;9.80;86.30;;;;;;5060899;28;20493;-45
2023/11/13 01:13:02;;;;;;;4.07;2.53;;;9.80;86.20;;;;;;5061630;28;20860;-47
2023/11/13 01:15:30;;;;;;;3.00;2.50;;;9.80;86.40;;;;;;5062940;28;20430;-48
2023/11/13 01:17:58;;;;;;;2.33;2.03;;;9.80;86.30;;;;;;5063970;28;20474;-48
2023/11/13 01:20:27;;;;;;;2.47;2.27;;;9.80;86.40;;;;;;5062463;28;20452;-44
2023/11/13 01:22:56;;;;;;;2.20;1.80;;;9.80;86.50;;;;;;5063024;28;20458;-49
2023/11/13 01:25:24;;;;;;;2.20;1.87;;;9.80;86.60;;;;;;5062480;28;20531;-48
2023/11/13 01:27:53;;;;;;;2.20;2.00;;;9.80;86.50;;;;;;5060806;28;20469;-48
2023/11/13 01:30:21;;;;;;;3.07;2.30;;;9.80;86.70;;;;;;5064888;28;20430;-47
2023/11/13 01:32:50;;;;;;;1.97;1.77;;;9.80;86.60;;;;;;5059969;28;20448;-46
2023/11/13 01:35:18;;;;;;;3.50;2.33;;;9.80;86.80;;;;;;5063651;28;20422;-45
2023/11/13 01:37:47;;;;;;;3.20;2.90;;;9.80;86.90;;;;;;5062989;28;20455;-45
2023/11/13 01:40:15;;;;;;;3.57;3.10;;;9.80;87.60;;;;;;5059626;28;20451;-48
2023/11/13 01:42:43;;;;;;;4.57;2.70;;;9.80;87.50;;;;;;5062539;28;20430;-46
2023/11/13 01:45:12;;;;;;;3.27;2.80;;;9.80;87.50;;;;;;5060313;28;21011;-46
2023/11/13 01:47:40;;;;;;;2.60;2.40;;;9.80;87.50;;;;;;5058701;28;20462;-49
2023/11/13 01:50:10;;;;;;;2.53;2.00;;;9.80;87.30;;;;;;5060701;28;20948;-49
2023/11/13 01:52:38;;;;;;;2.83;2.53;;;9.80;87.30;;;;;;5060687;28;20522;-46
2023/11/13 01:55:10;;;;;;;2.70;2.27;;;9.80;87.60;;;;;;5059791;28;20534;-49
2023/11/13 01:57:43;;;;;;;2.80;2.23;;;9.80;87.40;;;;;;5058709;28;20442;-47
2023/11/13 02:00:14;;;;;;;3.10;2.90;;;9.80;87.20;;;;;;5056252;28;20444;-46
2023/11/13 02:02:43;;;;;;;3.50;2.97;;;9.80;87.40;;;;;;5062768;28;20453;-48
2023/11/13 02:05:11;;;;;;;4.87;2.87;;;9.80;87.60;;;;;;5057789;28;20796;-50
2023/11/13 02:07:41;;;;;;;2.90;2.40;;;9.80;87.80;;;;;;5060105;28;20998;-45
2023/11/13 02:10:10;;;;;;;2.03;1.80;;;9.80;87.90;;;;;;5057932;28;20495;-46
2023/11/13 02:12:39;;;;;;;2.40;1.60;;;9.80;87.60;;;;;;5058776;28;20496;-49
2023/11/13 02:15:08;;;;;;;2.00;1.67;;;9.80;88.50;;;;;;5057523;28;20434;-48
2023/11/13 02:17:38;;;;;;;2.27;2.07;;;9.80;87.20;;;;;;5062885;28;20458;-46
2023/11/13 02:20:08;;;;;;;3.63;2.30;;;9.80;87.00;;;;;;5060846;28;20796;-46
2023/11/13 02:22:36;;;;;;;3.23;2.73;;;9.80;86.80;;;;;;5060907;28;20471;-46
2023/11/13 02:25:09;;;;;;;2.40;1.87;;;9.80;86.80;;;;;;5059909;28;20451;-45
2023/11/13 02:27:37;;;;;;;3.60;2.50;;;9.80;86.80;;;;;;5062332;28;20485;-47
2023/11/13 02:30:09;;;;;;;2.30;1.80;;;9.80;86.80;;;;;;5063132;28;20470;-47
2023/11/13 02:32:37;;;;;;;2.93;1.80;;;9.80;86.80;;;;;;5063434;28;20829;-46
2023/11/13 02:35:06;;;;;;;2.03;1.70;;;9.80;87.00;;;;;;5061811;28;20981;-46
2023/11/13 02:37:34;;;;;;;2.40;2.20;;;9.80;87.10;;;;;;5060450;28;20516;-47
2023/11/13 02:40:02;;;;;;;2.30;2.10;;;9.80;86.70;;;;;;5058836;28;20857;-48
2023/11/13 02:42:34;;;;;;;3.97;2.57;;;9.80;87.00;;;;;;5063439;28;20472;-46
2023/11/13 02:45:02;;;;;;;2.90;1.87;;;9.80;87.20;;;;;;5062162;28;20462;-45
2023/11/13 02:47:30;;;;;;;3.43;2.50;;;9.80;87.30;;;;;;5060702;28;20474;-47
2023/11/13 02:49:59;;;;;;;4.50;1.97;;;9.80;87.00;;;;;;5058173;28;20992;-48
2023/11/13 02:52:28;;;;;;;2.83;2.10;;;9.80;87.50;;;;;;5062481;28;21015;-47
2023/11/13 02:54:56;;;;;;;2.93;2.30;;;9.80;87.80;;;;;;5058344;28;20481;-48
2023/11/13 02:57:24;;;;;;;3.33;2.23;;;9.80;88.00;;;;;;5059406;28;20447;-46
2023/11/13 02:59:54;;;;;;;3.80;2.53;;;9.70;88.10;;;;;;5056712;28;20451;-48
2023/11/13 03:02:22;;;;;;;3.43;1.77;;;9.80;88.80;;;;;;5062789;28;21001;-46
2023/11/13 03:04:51;;;;;;;3.00;2.07;;;9.70;88.40;;;;;;5057238;28;20479;-43
2023/11/13 03:07:19;;;;;;;2.57;1.80;;;9.80;88.40;;;;;;5059109;28;20475;-45
2023/11/13 03:09:47;;;;;;;2.10;1.70;;;9.70;87.90;;;;;;5054344;28;20475;-46
2023/11/13 03:12:16;;;;;;;2.20;1.80;;;9.70;88.00;;;;;;5063002;28;20483;-45
2023/11/13 03:14:44;;;;;;;2.57;2.03;;;9.70;87.50;;;;;;5057264;28;20492;-46
2023/11/13 03:17:13;;;;;;;1.80;1.43;;;9.80;88.60;;;;;;5064860;28;20526;-46
2023/11/13 03:19:42;;;;;;;2.27;1.77;;;9.80;87.90;;;;;;5062185;28;20469;-44
2023/11/13 03:22:11;;;;;;;1.83;1.63;;;9.70;87.80;;;;;;5057654;28;21127;-45
2023/11/13 03:24:39;;;;;;;2.20;1.80;;;9.70;87.80;;;;;;5059361;28;20920;-47
2023/11/13 03:27:07;;;;;;;2.10;1.90;;;9.80;87.80;;;;;;5060289;28;20503;-46
2023/11/13 03:29:35;;;;;;;1.70;1.37;;;9.80;87.70;;;;;;5060161;28;21087;-46
2023/11/13 03:32:04;;;;;;;1.67;1.33;;;9.80;87.30;;;;;;5057514;28;20959;-45
2023/11/13 03:34:33;;;;;;;3.20;1.97;;;9.80;87.50;;;;;;5057857;28;20473;-47
2023/11/13 03:37:03;;;;;;;1.90;1.60;;;9.80;87.20;;;;;;5056415;28;20452;-44
2023/11/13 03:39:31;;;;;;;2.27;1.63;;;9.80;87.20;;;;;;5054622;28;20566;-46
2023/11/13 03:41:59;;;;;;;2.63;1.97;;;9.80;87.10;;;;;;5055547;28;20806;-47
2023/11/13 03:44:27;;;;;;;1.90;1.70;;;9.80;87.10;;;;;;5055173;28;20496;-46
2023/11/13 03:46:56;;;;;;;1.87;1.40;;;9.80;86.80;;;;;;5061556;28;20521;-47
2023/11/13 03:49:24;;;;;;;2.47;1.73;;;9.80;86.90;;;;;;5056792;28;20524;-45
2023/11/13 03:51:54;;;;;;;2.07;1.50;;;9.80;86.90;;;;;;5058440;28;20431;-46
2023/11/13 03:54:23;;;;;;;1.70;1.40;;;9.80;86.80;;;;;;5054314;28;20896;-47
2023/11/13 03:56:51;;;;;;;2.57;1.50;;;9.80;86.60;;;;;;5061959;28;20855;-47
2023/11/13 03:59:19;;;;;;;1.70;1.47;;;9.80;86.50;;;;;;5052780;28;20550;-46
2023/11/13 04:01:47;;;;;;;2.23;1.70;;;9.80;86.50;;;;;;5063153;28;20480;-45
2023/11/13 04:04:16;;;;;;;2.20;1.77;;;9.80;86.50;;;;;;5064386;28;20470;-45
2023/11/13 04:06:44;;;;;;;3.13;1.70;;;9.80;86.40;;;;;;5059378;28;20462;-46
2023/11/13 04:09:14;;;;;;;2.70;1.53;;;9.80;86.40;;;;;;5058883;28;20478;-46
2023/11/13 04:11:43;;;;;;;3.40;1.40;;;9.80;86.40;;;;;;5061984;28;20442;-47
2023/11/13 04:14:11;;;;;;;2.97;1.60;;;9.80;86.30;;;;;;5067933;28;20809;-47
2023/11/13 04:16:39;;;;;;;2.20;1.33;;;9.80;87.50;;;;;;5065875;28;20486;-45
2023/11/13 04:19:08;;;;;;;2.43;1.33;;;9.80;86.30;;;;;;5064987;28;20471;-46
2023/11/13 04:21:37;;;;;;;1.87;1.63;;;9.80;86.30;;;;;;5062067;28;20942;-45
2023/11/13 04:24:06;;;;;;;2.53;1.60;;;9.80;86.80;;;;;;5066002;28;20462;-47
2023/11/13 04:26:35;;;;;;;3.13;1.97;;;9.80;86.30;;;;;;5063199;28;20450;-47
2023/11/13 04:29:03;;;;;;;1.70;1.20;;;9.80;86.70;;;;;;5068610;28;20494;-47
2023/11/13 04:31:31;;;;;;;1.70;1.50;;;9.80;86.50;;;;;;5069352;28;20861;-46
2023/11/13 04:33:59;;;;;;;1.80;1.50;;;9.80;86.50;;;;;;5066542;28;20487;-47
2023/11/13 04:36:27;;;;;;;2.00;1.80;;;9.80;86.40;;;;;;5066756;28;20842;-46
2023/11/13 04:38:55;;;;;;;2.03;1.33;;;9.80;86.50;;;;;;5061992;28;20477;-46
2023/11/13 04:41:24;;;;;;;2.57;1.67;;;9.80;86.70;;;;;;5069467;28;20911;-46
2023/11/13 04:43:55;;;;;;;1.93;1.70;;;9.80;87.00;;;;;;5068901;28;20480;-46
2023/11/13 04:46:24;;;;;;;1.80;1.20;;;9.80;87.30;;;;;;5069604;28;20431;-46
2023/11/13 04:48:52;;;;;;;2.17;1.40;;;9.80;87.20;;;;;;5065147;28;20462;-46
2023/11/13 04:51:20;;;;;;;1.77;1.47;;;9.70;86.70;;;;;;5066565;28;20454;-45
2023/11/13 04:53:48;;;;;;;2.40;1.10;;;9.70;86.80;;;;;;5065452;28;21097;-44
2023/11/13 04:56:16;;;;;;;1.50;1.20;;;9.70;87.10;;;;;;5068190;28;20533;-47
2023/11/13 04:58:44;;;;;;;2.00;1.40;;;9.80;87.10;;;;;;5067096;28;20546;-46
2023/11/13 05:01:14;;;;;;;3.67;1.67;;;9.70;87.00;;;;;;5068209;28;20439;-46
2023/11/13 05:03:43;;;;;;;1.73;1.33;;;9.70;87.70;;;;;;5063240;28;20527;-46
2023/11/13 05:06:14;;;;;;;1.80;1.23;;;9.70;87.30;;;;;;5063379;28;20466;-46
2023/11/13 05:08:43;;;;;;;2.30;1.50;;;9.80;87.00;;;;;;5066341;28;20546;-46
2023/11/13 05:11:21;;;;;;;2.13;1.67;;;9.70;87.40;;;;;;5064802;28;20550;-47
2023/11/13 05:13:50;;;;;;;3.57;1.80;;;9.70;87.30;;;;;;5066890;28;20501;-47
2023/11/13 05:16:22;;;;;;;4.57;1.27;;;9.70;88.10;;;;;;5066210;28;20541;-46
2023/11/13 05:18:51;;;;;;;2.30;1.53;;;9.80;88.10;;;;;;5061090;28;20476;-47
2023/11/13 05:21:20;;;;;;;2.90;1.50;;;9.70;87.80;;;;;;5064786;28;20456;-46
2023/11/13 05:23:48;;;;;;;4.67;1.70;;;9.70;87.90;;;;;;5064606;28;20929;-47
2023/11/13 05:26:18;;;;;;;1.87;1.40;;;9.70;88.20;;;;;;5064505;28;20442;-47
2023/11/13 05:28:46;;;;;;;2.47;1.40;;;9.70;87.60;;;;;;5064450;28;20466;-46
2023/11/13 05:31:15;;;;;;;2.13;1.60;;;9.70;88.40;;;;;;5062809;28;20511;-46
2023/11/13 05:33:44;;;;;;;2.97;1.70;;;9.70;88.00;;;;;;5062419;28;20483;-47
2023/11/13 05:36:12;;;;;;;2.73;1.40;;;9.70;89.00;;;;;;5064529;28;21024;-47
2023/11/13 05:38:42;;;;;;;2.57;1.13;;;9.70;88.10;;;;;;5064371;28;20474;-48
2023/11/13 05:41:10;;;;;;;2.50;1.80;;;9.80;88.60;;;;;;5061761;28;20446;-45
2023/11/13 05:43:38;;;;;;;3.10;1.80;;;9.70;88.40;;;;;;5061560;28;20975;-45
2023/11/13 05:46:07;;;;;;;2.23;1.40;;;9.70;88.60;;;;;;5061792;28;20851;-46
2023/11/13 05:48:35;;;;;;;1.97;1.57;;;9.70;88.40;;;;;;5063538;28;20462;-46
2023/11/13 05:51:06;;;;;;;3.40;1.70;;;9.70;87.80;;;;;;5064081;28;20467;-47
2023/11/13 05:53:34;;;;;;;1.90;1.20;;;9.70;89.40;;;;;;5059698;28;20570;-47
2023/11/13 05:56:02;;;;;;;2.70;1.30;;;9.70;88.60;;;;;;5062668;28;20473;-46
2023/11/13 05:58:30;;;;;;;2.27;1.70;;;9.80;89.60;;;;;;5061756;28;20467;-43
2023/11/13 06:00:58;;;;;;;2.93;1.80;;;9.80;90.10;;;;;;5063736;28;20841;-47
2023/11/13 06:03:27;;;;;;;4.50;1.80;;;9.70;90.00;;;;;;5061668;28;20473;-45
2023/11/13 06:05:55;;;;;;;3.93;1.40;;;9.70;90.00;;;;;;5062779;28;20451;-46
2023/11/13 06:08:25;;;;;;;2.20;1.50;;;9.70;90.20;;;;;;5053327;28;20505;-45
2023/11/13 06:10:53;;;;;;;1.53;1.20;;;9.70;90.00;;;;;;5058759;28;20455;-45
2023/11/13 06:13:21;;;;;;;2.07;1.10;;;9.70;90.00;;;;;;5061716;28;20463;-46
2023/11/13 06:15:49;;;;;;;3.17;1.80;;;9.70;90.60;;;;;;5059254;28;21031;-46
2023/11/13 06:18:17;;;;;;;1.30;1.20;;;9.70;90.70;;;;;;5057307;28;20520;-46
2023/11/13 06:20:47;;;;;;;5.07;1.80;;;9.70;90.10;;;;;;5061398;28;20971;-46
2023/11/13 06:23:15;;;;;;;4.67;1.80;;;9.70;90.40;;;;;;5061135;28;20542;-45
2023/11/13 06:25:45;;;;;;;3.37;1.60;;;9.70;90.60;;;;;;5059718;28;20434;-46
2023/11/13 06:28:14;;;;;;;3.03;1.57;;;9.80;90.60;;;;;;5059835;28;20987;-46
2023/11/13 06:30:43;;;;;;;2.47;1.40;;;9.70;90.10;;;;;;5059483;28;20455;-45
2023/11/13 06:33:11;;;;;;;7.23;1.63;;;9.70;90.30;;;;;;5060007;28;20462;-45
2023/11/13 06:35:40;;;;;;;2.20;1.57;;;9.70;90.60;;;;;;5059955;28;20427;-47
2023/11/13 06:38:26;;;;;;;3.07;1.60;;;9.70;90.20;;;;;;5060674;28;20847;-46
2023/11/13 06:40:56;;;;;;;1.60;1.10;;;9.70;90.70;;;;;;5058328;28;20481;-46
2023/11/13 06:43:25;;;;;;;1.70;1.27;;;9.70;90.40;;;;;;5060131;28;20451;-45
2023/11/13 06:45:53;;;;;;;5.70;1.37;;;9.70;90.40;;;;;;5059553;28;20427;-46
2023/11/13 06:48:21;;;;;;;3.17;1.53;;;9.70;90.30;;;;;;5058687;28;20996;-46
2023/11/13 06:50:50;;;;;;;2.83;1.57;;;9.70;90.30;;;;;;5060377;28;20462;-45
2023/11/13 06:53:18;;;;;;;2.30;1.30;;;9.70;90.20;;;;;;5057821;28;20855;-44
2023/11/13 06:55:47;;;;;;;3.70;1.77;;;9.70;90.40;;;;;;5055434;28;20980;-46
2023/11/13 06:58:17;;;;;;;1.93;1.00;;;9.70;90.60;;;;;;5056518;28;20481;-46
2023/11/13 07:00:45;;;;;;;3.30;1.43;;;9.70;90.10;;;;;;5057390;28;20878;-45
2023/11/13 07:03:13;;;;;;;1.70;0.97;;;9.70;90.10;;;;;;5056654;28;20461;-46
2023/11/13 07:05:42;;;;;;;2.47;1.07;;;9.70;90.30;;;;;;5058075;28;20876;-46
2023/11/13 07:08:10;;;;;;;3.27;1.43;;;9.70;90.30;;;;;;5062449;28;20830;-46
2023/11/13 07:10:38;;;;;;;4.77;2.13;;;9.70;90.80;;;;;;5055223;28;20504;-47
2023/11/13 07:13:10;;;;;;;2.77;1.50;;;9.70;90.90;;;;;;5057311;28;20469;-45
2023/11/13 07:15:40;;;;;;;4.33;1.47;;;9.70;90.90;;;;;;5061118;28;20437;-47
2023/11/13 07:18:09;;;;;;;2.30;1.20;;;9.70;91.00;;;;;;5059278;28;20470;-46
2023/11/13 07:20:38;;;;;;;5.10;1.67;;;9.70;91.10;;;;;;5061895;28;20529;-45
2023/11/13 07:23:07;;;;;;;2.60;1.23;;;9.70;91.50;;;;;;5060961;28;20840;-45
2023/11/13 07:25:35;;;;;;;1.87;1.10;;;9.70;91.70;;;;;;5058084;28;20517;-45
2023/11/13 07:28:03;;;;;;;2.37;1.90;;;9.70;91.60;;;;;;5059747;28;20458;-46
2023/11/13 07:30:33;;;;;;;1.87;1.50;;;9.70;91.40;;;;;;5056996;28;20905;-46
2023/11/13 07:33:03;;;;;;;2.37;1.40;;;9.70;91.30;;;;;;5059534;28;20517;-44
2023/11/13 07:35:31;;;;;;;3.93;1.50;;;9.70;91.10;;;;;;5060024;28;20471;-47
2023/11/13 07:38:00;;;;;;;3.20;1.37;;;9.70;91.50;;;;;;5057912;28;20450;-44
2023/11/13 07:40:28;;;;;;;2.90;1.60;;;9.70;91.40;;;;;;5057668;28;20435;-45
2023/11/13 07:42:57;;;;;;;5.03;1.53;;;9.70;91.60;;;;;;5057134;28;20475;-45
2023/11/13 07:45:25;;;;;;;3.70;1.60;;;9.70;92.00;;;;;;5056795;28;20442;-45
2023/11/13 07:47:53;;;;;;;4.20;1.53;;;9.70;91.90;;;;;;5056026;28;20991;-47
2023/11/13 07:50:27;;;;;;;2.40;1.40;;;9.70;91.90;;;;;;5061416;28;20430;-45
2023/11/13 07:52:55;;;;;;;3.30;1.80;;;9.70;92.10;;;;;;5055281;28;20463;-45
2023/11/13 07:55:23;;;;;;;4.37;1.83;;;9.70;92.00;;;;;;5055899;28;20450;-46
2023/11/13 07:57:53;;;;;;;4.80;1.77;;;9.70;92.50;;;;;;5060143;28;20878;-46
2023/11/13 08:00:23;;;;;;;4.13;1.67;;;9.70;92.30;;;;;;5057525;28;20431;-45
2023/11/13 08:02:52;;;;;;;3.70;1.40;;;9.70;92.70;;;;;;5057384;28;20945;-45
2023/11/13 08:05:21;;;;;;;1.97;1.10;;;9.70;92.30;;;;;;5060304;28;20477;-44
2023/11/13 08:07:52;;;;;;;3.90;1.60;;;9.70;92.60;;;;;;5062327;28;20456;-45
2023/11/13 08:10:20;;;;;;;2.90;1.60;;;9.70;92.40;;;;;;5058435;28;20581;-45
2023/11/13 08:12:49;;;;;;;3.50;1.60;;;9.70;92.60;;;;;;5068762;28;20474;-46
2023/11/13 08:15:18;;;;;;;2.40;1.23;;;9.70;92.50;;;;;;5067033;28;20430;-44
2023/11/13 08:17:49;;;;;;;2.10;1.10;;;9.70;92.50;;;;;;5056457;28;20836;-45
2023/11/13 08:20:18;;;;;;;2.80;1.40;;;9.80;92.90;;;;;;5062870;28;20446;-46
2023/11/13 08:22:48;;;;;;;2.00;1.13;;;9.70;92.90;;;;;;5064988;28;20434;-45
2023/11/13 08:25:18;;;;;;;2.63;1.33;;;9.70;93.00;;;;;;5061503;28;21486;-45
2023/11/13 08:27:46;;;;;;;3.10;1.63;;;9.70;93.30;;;;;;5064684;28;21232;-46
2023/11/13 08:30:15;;;;;;;3.50;1.30;;;9.70;93.10;;;;;;5058832;28;20857;-47
2023/11/13 08:32:43;;;;;;;2.70;1.60;;;9.70;93.10;;;;;;5060862;28;20466;-48
2023/11/13 08:35:12;;;;;;;2.00;1.00;;;9.70;92.80;;;;;;5060311;28;20489;-47
2023/11/13 08:37:45;;;;;;;3.10;2.00;;;9.70;93.00;;;;;;5060714;28;20553;-46
2023/11/13 08:40:17;;;;;;;4.30;1.00;;;9.70;92.70;;;;;;5053562;28;20459;-46
2023/11/13 08:42:47;;;;;;;4.10;1.60;;;9.70;92.40;;;;;;5056935;28;20445;-47
2023/11/13 08:45:16;;;;;;;4.67;1.00;;;9.70;92.50;;;;;;5063327;28;20545;-45
2023/11/13 08:47:45;;;;;;;1.50;0.80;;;9.70;92.50;;;;;;5064829;28;20458;-45
2023/11/13 08:50:13;;;;;;;2.63;1.33;;;9.70;92.50;;;;;;5063734;28;20447;-47
2023/11/13 08:52:42;;;;;;;2.30;1.17;;;9.70;92.80;;;;;;5059970;28;20470;-44
2023/11/13 08:55:11;;;;;;;1.70;1.00;;;9.80;93.00;;;;;;5059206;28;20530;-46
2023/11/13 08:57:41;;;;;;;3.30;1.50;;;9.70;92.90;;;;;;5065256;28;20533;-50
2023/11/13 09:00:18;;;;;;;4.50;1.47;;;9.70;92.70;;;;;;5063093;28;20818;-48
2023/11/13 09:02:47;;;;;;;4.00;1.50;;;9.70;92.90;;;;;;5057166;28;20496;-46
2023/11/13 09:05:26;;;;;;;2.07;1.40;;;9.80;93.10;;;;;;5060611;28;20446;-46
2023/11/13 09:07:56;;;;;;;2.27;1.13;;;9.70;92.90;;;;;;5065560;28;20496;-46
2023/11/13 09:10:27;;;;;;;2.20;1.23;;;9.70;93.20;;;;;;5057106;28;20447;-47
2023/11/13 09:12:58;;;;;;;2.47;1.13;;;9.70;92.70;;;;;;5067612;28;20473;-49
2023/11/13 09:15:30;;;;;;;4.40;1.10;;;9.70;93.00;;;;;;5067682;28;20437;-45
2023/11/13 09:18:05;;;;;;;3.00;1.23;;;9.70;92.90;;;;;;5062570;28;20470;-45
2023/11/13 09:20:35;;;;;;;2.37;1.70;;;9.70;93.40;;;;;;5065933;28;20480;-46
2023/11/13 09:23:05;;;;;;;2.13;1.20;;;9.70;93.10;;;;;;5064915;28;20980;-47
2023/11/13 09:25:33;;;;;;;2.30;1.00;;;9.70;92.80;;;;;;5061425;28;20445;-48
2023/11/13 09:28:02;;;;;;;2.10;1.30;;;9.80;93.40;;;;;;5062814;28;20466;-47
2023/11/13 09:30:33;;;;;;;2.23;1.10;;;9.70;93.40;;;;;;5065944;28;20426;-49
2023/11/13 09:33:06;;;;;;;1.60;1.00;;;9.80;93.40;;;;;;5061452;28;20497;-45
2023/11/13 09:35:36;;;;;;;1.77;0.80;;;9.70;93.70;;;;;;5066971;28;20426;-46
2023/11/13 09:38:07;;;;;;;2.60;1.20;;;9.80;93.50;;;;;;5064595;28;20959;-48
2023/11/13 09:40:36;;;;;;;1.70;1.13;;;9.70;93.40;;;;;;5065049;28;20553;-48
2023/11/13 09:43:12;;;;;;;2.13;1.10;;;9.80;93.50;;;;;;5064662;28;20546;-46
2023/11/13 09:45:46;;;;;;;2.50;1.30;;;9.80;93.30;;;;;;5066748;28;20423;-48
2023/11/13 09:48:18;;;;;;;2.33;1.20;;;9.70;93.50;;;;;;5039002;28;20978;-47
2023/11/13 09:50:47;;;;;;;2.17;1.47;;;9.80;93.50;;;;;;5075506;28;20578;-47
2023/11/13 09:53:23;;;;;;;2.57;1.37;;;9.80;93.70;;;;;;5061641;28;20975;-45
2023/11/13 09:55:52;;;;;;;1.77;0.90;;;9.80;93.00;;;;;;5061718;28;20438;-48
2023/11/13 09:58:24;;;;;;;1.60;0.93;;;9.80;93.30;;;;;;5061832;28;20465;-49
2023/11/13 10:00:54;;;;;;;2.60;1.00;;;9.80;93.20;;;;;;5064984;28;20445;-47
2023/11/13 10:03:22;;;;;;;1.37;0.90;;;9.80;93.50;;;;;;5062170;28;20455;-48
2023/11/13 10:05:50;;;;;;;3.00;1.00;;;9.80;93.70;;;;;;5064926;28;20517;-48
2023/11/13 10:08:20;;;;;;;1.77;1.00;;;9.80;93.50;;;;;;5063729;28;20462;-47
2023/11/13 10:10:49;;;;;;;1.27;0.80;;;9.80;93.40;;;;;;5060416;28;20436;-48
2023/11/13 10:13:24;;;;;;;2.90;0.70;;;9.80;93.60;;;;;;5062126;28;20470;-46
2023/11/13 10:15:53;;;;;;;2.43;1.10;;;9.80;92.80;;;;;;5057938;28;20537;-45
2023/11/13 10:18:28;;;;;;;1.87;0.90;;;9.80;92.70;;;;;;5061191;28;20445;-47
2023/11/13 10:21:01;;;;;;;1.90;0.90;;;9.80;92.50;;;;;;5063601;28;20450;-46
2023/11/13 10:23:35;;;;;;;1.70;0.80;;;9.80;92.70;;;;;;5057893;28;20561;-49
2023/11/13 10:26:04;;;;;;;2.30;1.00;;;9.80;92.20;;;;;;5059469;28;20473;-47
2023/11/13 10:28:36;;;;;;;1.90;1.30;;;9.80;92.40;;;;;;5057172;28;21181;-47
2023/11/13 10:31:12;;;;;;;2.85;1.02;;;9.80;92.90;;;;;;5062075;28;20430;-48
2023/11/13 10:33:42;;;;;;;2.13;1.13;;;9.90;92.40;;;;;;5054573;28;20207;-49
2023/11/13 10:36:17;;;;;;;3.80;0.80;;;9.90;91.90;;;;;;5057105;28;20892;-48
2023/11/13 10:38:51;;;;;;;1.87;0.87;;;9.90;92.40;;;;;;5040862;28;20481;-46
2023/11/13 10:41:22;;;;;;;2.33;1.00;;;9.90;91.60;;;;;;5059696;28;20453;-46
2023/11/13 10:43:50;;;;;;;1.87;1.10;;;9.90;91.20;;;;;;5059595;28;20455;-47
2023/11/13 10:46:29;;;;;;;1.67;1.00;;;9.90;91.60;;;;;;5060413;28;20710;-47
2023/11/13 10:48:59;;;;;;;1.70;1.20;;;9.90;91.10;;;;;;5060779;28;20987;-46
2023/11/13 10:51:30;;;;;;;1.83;1.27;;;9.90;91.20;;;;;;5061291;28;20427;-46
2023/11/13 10:54:03;;;;;;;1.83;1.00;;;9.90;91.30;;;;;;5062735;28;20471;-46
2023/11/13 10:56:32;;;;;;;1.60;0.93;;;9.90;91.40;;;;;;5062710;28;20461;-48
2023/11/13 10:59:01;;;;;;;2.30;1.10;;;9.90;91.40;;;;;;5063453;28;20998;-47
2023/11/13 11:01:30;;;;;;;1.70;1.00;;;9.90;91.40;;;;;;5063649;28;20442;-46
2023/11/13 11:04:05;;;;;;;1.83;1.10;;;9.90;91.40;;;;;;5063499;28;20473;-47
2023/11/13 11:06:39;;;;;;;2.17;0.97;;;9.90;91.60;;;;;;5058353;28;21049;-47
2023/11/13 11:09:12;;;;;;;2.50;0.90;;;9.90;92.10;;;;;;5058608;28;20494;-46
2023/11/13 11:11:41;;;;;;;1.30;0.77;;;9.90;92.00;;;;;;5060578;28;20422;-47
2023/11/13 11:14:17;;;;;;;3.20;1.30;;;9.90;91.60;;;;;;5064532;28;20480;-47
2023/11/13 11:16:50;;;;;;;1.70;1.10;;;9.90;91.20;;;;;;5065330;28;20462;-48
2023/11/13 11:19:27;;;;;;;1.70;0.90;;;9.90;91.40;;;;;;5057336;28;20494;-50
2023/11/13 11:22:02;;;;;;;3.43;1.33;;;9.90;91.20;;;;;;5062890;28;20452;-47
2023/11/13 11:24:52;;;;;;;2.63;1.03;;;9.90;91.50;;;;;;5060773;28;20837;-48
2023/11/13 11:27:35;;;;;;;1.40;0.93;;;9.90;91.10;;;;;;5059137;28;20559;-47
2023/11/13 11:30:32;;;;;;;1.00;0.50;;;10.00;90.30;;;;;;5062891;28;20502;-49
2023/11/13 11:33:02;;;;;;;1.73;1.40;;;10.00;90.30;;;;;;5058796;28;21794;-47
2023/11/13 11:35:37;;;;;;;1.77;1.20;;;10.00;90.40;;;;;;5059590;28;20722;-44
2023/11/13 11:38:20;;;;;;;1.80;1.00;;;10.00;90.10;;;;;;5062010;28;20463;-47
2023/11/13 11:40:49;;;;;;;1.40;1.07;;;10.00;90.20;;;;;;5060093;28;21049;-50
2023/11/13 11:43:21;;;;;;;1.67;0.70;;;10.00;90.40;;;;;;5061161;28;20438;-48
2023/11/13 11:45:52;;;;;;;1.77;1.20;;;10.00;90.10;;;;;;5064758;28;20435;-47
2023/11/13 11:48:23;;;;;;;1.50;0.90;;;10.00;90.10;;;;;;5056219;28;20484;-45
2023/11/13 11:50:53;;;;;;;2.03;0.93;;;10.00;90.20;;;;;;5057635;28;20801;-47
2023/11/13 11:53:23;;;;;;;2.47;1.10;;;10.00;90.50;;;;;;5063032;28;20498;-48
2023/11/13 11:55:51;;;;;;;1.30;1.10;;;10.00;90.20;;;;;;5054974;28;20965;-47
2023/11/13 11:58:20;;;;;;;1.80;0.80;;;10.00;90.40;;;;;;5054795;28;20454;-48
2023/11/13 12:00:51;;;;;;;2.20;1.03;;;10.10;90.20;;;;;;5060874;28;20530;-46
2023/11/13 12:03:20;;;;;;;1.80;1.07;;;10.10;90.50;;;;;;5061779;28;20519;-47
2023/11/13 12:05:50;;;;;;;1.40;0.80;;;10.10;90.10;;;;;;5056861;28;20443;-46
2023/11/13 12:08:19;;;;;;;1.43;0.90;;;10.10;90.30;;;;;;5058713;28;20427;-46
2023/11/13 12:10:48;;;;;;;1.47;0.87;;;10.10;90.40;;;;;;5053701;28;20998;-48
2023/11/13 12:13:19;;;;;;;1.10;0.70;;;10.10;90.70;;;;;;5064510;28;20445;-46
2023/11/13 12:15:48;;;;;;;3.37;0.80;;;10.10;90.40;;;;;;5059241;28;20550;-48
2023/11/13 12:18:18;;;;;;;1.63;0.97;;;10.10;90.50;;;;;;5064614;28;20801;-44
2023/11/13 12:20:49;;;;;;;1.13;0.67;;;10.10;90.40;;;;;;5067705;28;20430;-46
2023/11/13 12:23:17;;;;;;;2.20;0.70;;;10.10;90.40;;;;;;5061204;28;20456;-45
2023/11/13 12:25:45;;;;;;;1.53;0.90;;;10.10;90.50;;;;;;5062783;28;20820;-48
2023/11/13 12:28:14;;;;;;;1.57;0.90;;;10.10;90.70;;;;;;5061108;28;20887;-47
2023/11/13 12:30:43;;;;;;;1.97;0.90;;;10.10;90.40;;;;;;5061422;28;20451;-46
2023/11/13 12:33:12;;;;;;;1.50;0.60;;;10.10;90.40;;;;;;5053642;28;20460;-47
2023/11/13 12:35:41;;;;;;;1.87;0.90;;;10.10;90.60;;;;;;5072149;28;20467;-46
2023/11/13 12:38:10;;;;;;;1.43;0.80;;;10.10;90.60;;;;;;5060021;28;20447;-47
2023/11/13 12:40:38;;;;;;;1.40;0.70;;;10.10;90.50;;;;;;5061492;28;20496;-46
2023/11/13 12:43:08;;;;;;;1.70;0.70;;;10.10;90.60;;;;;;5061658;28;20532;-52
2023/11/13 12:45:36;;;;;;;2.23;1.00;;;10.10;90.60;;;;;;5056176;28;20430;-47
2023/11/13 12:48:06;;;;;;;1.63;0.80;;;10.10;90.80;;;;;;5064345;28;20446;-45
2023/11/13 12:50:40;;;;;;;1.77;0.80;;;10.10;90.60;;;;;;5062358;28;20481;-45
2023/11/13 12:53:13;;;;;;;2.20;1.20;;;10.10;90.90;;;;;;5064746;28;20944;-46
2023/11/13 12:55:42;;;;;;;1.63;1.00;;;10.10;90.80;;;;;;5064173;28;20480;-47
2023/11/13 12:58:15;;;;;;;1.60;0.80;;;10.10;91.60;;;;;;5062874;28;20435;-45
2023/11/13 13:00:44;;;;;;;3.00;1.03;;;10.10;91.20;;;;;;5060745;28;20496;-45
2023/11/13 13:03:12;;;;;;;1.33;1.00;;;10.10;92.10;;;;;;5058674;28;20494;-47
2023/11/13 13:05:42;;;;;;;2.63;0.80;;;10.10;91.20;;;;;;5063067;28;20929;-47
2023/11/13 13:08:12;;;;;;;1.70;0.83;;;10.20;91.40;;;;;;5060801;28;20449;-45